createdAt,value
2018-09-21T00:02:16.500Z,99502.50
2018-09-21T00:04:44.186Z,99515.53
2018-09-21T00:07:11.893Z,99515.36
2018-09-21T00:09:39.608Z,99514.88
2018-09-21T00:12:07.293Z,99515.99
2018-09-21T00:14:34.961Z,99525.88
2018-09-21T00:17:02.643Z,99529.50
2018-09-21T00:19:30.360Z,99535.58
2018-09-21T00:21:58.035Z,99533.30
2018-09-21T00:24:25.764Z,99528.55
2018-09-21T00:26:53.488Z,99526.06
2018-09-21T00:29:21.185Z,99523.39
2018-09-21T00:31:48.857Z,99523.98
2018-09-21T00:34:16.589Z,99551.43
2018-09-21T00:36:44.304Z,99552.56
2018-09-21T00:39:12.007Z,99539.17
2018-09-21T00:41:39.868Z,99533.39
2018-09-21T00:44:07.964Z,99531.04
2018-09-21T00:46:36.032Z,99537.74
2018-09-21T00:49:03.893Z,99545.22
2018-09-21T00:51:31.732Z,99558.62
2018-09-21T00:53:59.480Z,99566.55
2018-09-21T00:56:27.242Z,99559.78
2018-09-21T00:58:55.020Z,99558.78
2018-09-21T01:01:22.692Z,99553.20
2018-09-21T01:03:50.400Z,99569.85
2018-09-21T01:06:18.093Z,99578.54
2018-09-21T01:08:45.785Z,99575.65
2018-09-21T01:11:14.177Z,99569.48
2018-09-21T01:13:41.884Z,99568.22
2018-09-21T01:16:09.564Z,99570.27
2018-09-21T01:18:37.301Z,99575.93
2018-09-21T01:21:05.092Z,99572.94
2018-09-21T01:23:32.776Z,99568.54
2018-09-21T01:26:00.629Z,99557.12
2018-09-21T01:28:28.311Z,99565.91
2018-09-21T01:30:55.979Z,99508.33
2018-09-21T01:33:23.665Z,99572.38
2018-09-21T01:35:51.456Z,99590.04
2018-09-21T01:38:19.147Z,99596.55
2018-09-21T01:40:46.848Z,99596.41
2018-09-21T01:43:14.513Z,99595.09
2018-09-21T01:45:42.184Z,99593.62
2018-09-21T01:48:09.869Z,99581.13
2018-09-21T01:50:37.556Z,99589.09
2018-09-21T01:53:05.312Z,99587.84
2018-09-21T01:55:33.009Z,99593.27
2018-09-21T01:58:00.698Z,99582.84
2018-09-21T02:00:28.407Z,99580.09
2018-09-21T02:02:56.090Z,99578.41
2018-09-21T02:05:23.800Z,99583.84
2018-09-21T02:07:51.480Z,99577.47
2018-09-21T02:10:19.192Z,99574.89
2018-09-21T02:12:46.948Z,99573.82
2018-09-21T02:15:14.632Z,99573.73
2018-09-21T02:17:42.434Z,99582.28
2018-09-21T02:20:10.144Z,99583.73
2018-09-21T02:22:37.908Z,99569.38
2018-09-21T02:25:05.632Z,99578.03
2018-09-21T02:27:33.312Z,99573.94
2018-09-21T02:30:01.056Z,99578.59
2018-09-21T02:32:28.784Z,99577.17
2018-09-21T02:34:56.536Z,99584.38
2018-09-21T02:37:24.252Z,99584.31
2018-09-21T02:39:51.979Z,99585.32
2018-09-21T02:42:19.732Z,99579.28
2018-09-21T02:44:47.423Z,99580.59
2018-09-21T02:47:15.095Z,99581.84
2018-09-21T02:49:42.823Z,99577.83
2018-09-21T02:52:10.501Z,99572.24
2018-09-21T02:54:38.203Z,99568.61
2018-09-21T02:57:06.080Z,99568.73
2018-09-21T02:59:33.757Z,99579.22
2018-09-21T03:02:01.448Z,99577.72
2018-09-21T03:04:29.203Z,99565.87
2018-09-21T03:06:56.925Z,99574.95
2018-09-21T03:09:24.701Z,99567.75
2018-09-21T03:11:52.452Z,99557.20
2018-09-21T03:14:20.172Z,99558.44
2018-09-21T03:16:47.889Z,99565.33
2018-09-21T03:19:15.589Z,99568.09
2018-09-21T03:21:43.280Z,99563.31
2018-09-21T03:24:10.980Z,99567.03
2018-09-21T03:26:38.735Z,99553.31
2018-09-21T03:29:06.427Z,99555.64
2018-09-21T03:31:34.144Z,99563.05
2018-09-21T03:34:01.846Z,99560.52
2018-09-21T03:36:29.577Z,99567.89
2018-09-21T03:38:57.261Z,99558.36
2018-09-21T03:41:24.970Z,99555.03
2018-09-21T03:43:52.690Z,99558.14
2018-09-21T03:46:20.396Z,99559.31
2018-09-21T03:48:48.196Z,99566.35
2018-09-21T03:51:16.003Z,99562.78
2018-09-21T03:53:43.705Z,99565.94
2018-09-21T03:56:11.417Z,99566.41
2018-09-21T03:58:39.215Z,99564.94
2018-09-21T04:01:07.088Z,99568.18
2018-09-21T04:03:34.746Z,99575.01
2018-09-21T04:06:02.460Z,99574.21
2018-09-21T04:08:30.145Z,99578.34
2018-09-21T04:10:57.920Z,99584.38
2018-09-21T04:13:25.597Z,99584.44
2018-09-21T04:15:53.337Z,99582.53
2018-09-21T04:18:21.073Z,99572.00
2018-09-21T04:20:48.780Z,99580.59
2018-09-21T04:23:16.460Z,99577.20
2018-09-21T04:25:44.171Z,99582.31
2018-09-21T04:28:15.014Z,99585.55
2018-09-21T04:30:45.658Z,99590.81
2018-09-21T04:33:14.083Z,99590.81
2018-09-21T04:35:41.777Z,99588.20
2018-09-21T04:38:09.463Z,99584.00
2018-09-21T04:40:37.139Z,99582.24
2018-09-21T04:43:04.884Z,99576.97
2018-09-21T04:45:32.569Z,99578.12
2018-09-21T04:48:20.537Z,99566.02
2018-09-21T04:50:48.232Z,99555.39
2018-09-21T04:53:15.926Z,99554.44
2018-09-21T04:55:43.640Z,99563.95
2018-09-21T04:58:11.300Z,99566.89
2018-09-21T05:00:38.968Z,99554.59
2018-09-21T05:03:06.772Z,99560.61
2018-09-21T05:05:34.479Z,99558.19
2018-09-21T05:08:02.283Z,99554.65
2018-09-21T05:10:30.125Z,99549.59
2018-09-21T05:12:57.821Z,99554.53
2018-09-21T05:15:25.524Z,99562.32
2018-09-21T05:17:53.253Z,99551.28
2018-09-21T05:20:20.935Z,99561.31
2018-09-21T05:22:48.603Z,99561.70
2018-09-21T05:25:16.370Z,99560.45
2018-09-21T05:27:44.033Z,99560.63
2018-09-21T05:30:11.729Z,99565.52
2018-09-21T05:32:39.431Z,99553.68
2018-09-21T05:35:07.227Z,99559.86
2018-09-21T05:37:34.940Z,99553.22
2018-09-21T05:40:02.660Z,99550.36
2018-09-21T05:42:30.373Z,99556.42
2018-09-21T05:44:58.045Z,99558.26
2018-09-21T05:47:25.734Z,99556.22
2018-09-21T05:49:53.648Z,99552.27
2018-09-21T05:52:21.366Z,99547.67
2018-09-21T05:54:49.041Z,99556.57
2018-09-21T05:57:16.730Z,99552.05
2018-09-21T05:59:44.429Z,99540.82
2018-09-21T06:02:12.187Z,99541.38
2018-09-21T06:04:39.839Z,99540.72
2018-09-21T06:07:07.545Z,99549.42
2018-09-21T06:09:35.216Z,99556.39
2018-09-21T06:12:02.901Z,99551.30
2018-09-21T06:14:30.637Z,99555.53
2018-09-21T06:16:58.320Z,99555.07
2018-09-21T06:19:26.016Z,99561.41
2018-09-21T06:21:53.700Z,99566.97
2018-09-21T06:24:21.442Z,99576.63
2018-09-21T06:26:49.121Z,99573.98
2018-09-21T06:29:16.799Z,99575.77
2018-09-21T06:31:44.501Z,99578.69
2018-09-21T06:34:12.193Z,99587.84
2018-09-21T06:36:39.904Z,99595.30
2018-09-21T06:39:09.616Z,99597.33
2018-09-21T06:41:37.892Z,99598.17
2018-09-21T06:44:06.534Z,99596.27
2018-09-21T06:46:34.254Z,99587.38
2018-09-21T06:49:01.940Z,99599.73
2018-09-21T06:51:29.604Z,99596.72
2018-09-21T06:53:57.263Z,99605.73
2018-09-21T06:56:24.994Z,99594.54
2018-09-21T06:58:52.699Z,99593.47
2018-09-21T07:01:20.381Z,99599.42
2018-09-21T07:03:48.179Z,99601.12
2018-09-21T07:06:15.896Z,99593.34
2018-09-21T07:08:43.556Z,99590.53
2018-09-21T07:11:11.346Z,99589.45
2018-09-21T07:13:39.035Z,99596.05
2018-09-21T07:16:06.849Z,99595.58
2018-09-21T07:18:34.516Z,99596.43
2018-09-21T07:21:02.209Z,99607.80
2018-09-21T07:23:29.885Z,99598.64
2018-09-21T07:25:57.639Z,99595.89
2018-09-21T07:28:25.335Z,99590.41
2018-09-21T07:30:53.069Z,99590.73
2018-09-21T07:33:20.794Z,99586.28
2018-09-21T07:35:48.618Z,99589.63
2018-09-21T07:38:16.272Z,99597.48
2018-09-21T07:40:43.947Z,99597.20
2018-09-21T07:43:11.684Z,99603.11
2018-09-21T07:45:39.396Z,99606.08
2018-09-21T07:48:07.058Z,99609.05
2018-09-21T07:50:34.844Z,99614.39
2018-09-21T07:53:02.675Z,99601.45
2018-09-21T07:55:30.353Z,99610.64
2018-09-21T07:57:58.038Z,99604.87
2018-09-21T08:00:25.748Z,99611.35
2018-09-21T08:02:53.425Z,99608.30
2018-09-21T08:05:27.339Z,99606.02
2018-09-21T08:07:55.230Z,99621.91
2018-09-21T08:10:22.993Z,99616.48
2018-09-21T08:12:50.817Z,99618.42
2018-09-21T08:15:18.507Z,99612.98
2018-09-21T08:17:46.702Z,99613.82
2018-09-21T08:20:14.428Z,99613.10
2018-09-21T08:22:42.141Z,99618.16
2018-09-21T08:25:09.930Z,99608.86
2018-09-21T08:27:37.624Z,99606.32
2018-09-21T08:30:05.417Z,99613.23
2018-09-21T08:32:33.136Z,99603.77
2018-09-21T08:35:00.921Z,99600.98
2018-09-21T08:37:28.627Z,99601.17
2018-09-21T08:39:56.380Z,99601.12
2018-09-21T08:42:24.933Z,99596.34
2018-09-21T08:44:52.640Z,99593.77
2018-09-21T08:47:20.347Z,99587.50
2018-09-21T08:49:48.016Z,99570.73
2018-09-21T08:52:15.711Z,99576.11
2018-09-21T08:54:43.392Z,99576.00
2018-09-21T08:57:11.113Z,99573.13
2018-09-21T08:59:38.820Z,99567.14
2018-09-21T09:02:06.549Z,99548.88
2018-09-21T09:04:34.228Z,99550.08
2018-09-21T09:07:01.961Z,99549.14
2018-09-21T09:09:29.657Z,99561.04
2018-09-21T09:11:57.366Z,99544.81
2018-09-21T09:14:25.052Z,99553.02
2018-09-21T09:16:52.772Z,99545.43
2018-09-21T09:19:20.633Z,99541.31
2018-09-21T09:21:48.718Z,99545.88
2018-09-21T09:24:16.431Z,99550.52
2018-09-21T09:26:44.186Z,99559.60
2018-09-21T09:29:11.872Z,99561.02
2018-09-21T09:31:39.547Z,99562.34
2018-09-21T09:34:07.731Z,99561.84
2018-09-21T09:36:35.412Z,99557.50
2018-09-21T09:39:04.029Z,99552.41
2018-09-21T09:41:31.702Z,99546.52
2018-09-21T09:43:59.400Z,99555.92
2018-09-21T09:46:27.100Z,99555.55
2018-09-21T09:48:54.917Z,99550.19
2018-09-21T09:51:22.547Z,99554.09
2018-09-21T09:53:50.246Z,99552.53
2018-09-21T09:56:17.992Z,99542.66
2018-09-21T09:58:45.758Z,99549.63
2018-09-21T10:01:13.463Z,99540.52
2018-09-21T10:03:41.245Z,99537.98
2018-09-21T10:06:09.064Z,99539.13
2018-09-21T10:08:36.802Z,99536.42
2018-09-21T10:11:04.508Z,99537.66
2018-09-21T10:13:32.182Z,99542.54
2018-09-21T10:15:59.951Z,99531.89
2018-09-21T10:18:27.636Z,99538.73
2018-09-21T10:20:55.386Z,99532.45
2018-09-21T10:23:23.093Z,99529.42
2018-09-21T10:25:50.776Z,99533.21
2018-09-21T10:28:18.846Z,99540.45
2018-09-21T10:30:46.742Z,99545.55
2018-09-21T10:33:14.561Z,99546.00
2018-09-21T10:35:42.497Z,99550.81
2018-09-21T10:38:10.306Z,99541.52
2018-09-21T10:40:38.307Z,99527.44
2018-09-21T10:43:06.260Z,99524.66
2018-09-21T10:45:34.053Z,99519.10
2018-09-21T10:48:01.976Z,99532.44
2018-09-21T10:50:29.841Z,99532.25
2018-09-21T10:52:57.691Z,99529.48
2018-09-21T10:55:25.602Z,99531.95
2018-09-21T10:57:53.459Z,99529.70
2018-09-21T11:00:21.313Z,99520.52
2018-09-21T11:02:49.234Z,99518.98
2018-09-21T11:05:17.125Z,99521.20
2018-09-21T11:07:45.058Z,99523.92
2018-09-21T11:10:12.963Z,99529.37
2018-09-21T11:12:40.801Z,99529.16
2018-09-21T11:15:08.682Z,99539.19
2018-09-21T11:17:36.601Z,99547.14
2018-09-21T11:20:04.532Z,99571.77
2018-09-21T11:22:32.470Z,99563.66
2018-09-21T11:25:00.313Z,99549.34
2018-09-21T11:27:28.171Z,99544.39
2018-09-21T11:29:56.036Z,99536.39
2018-09-21T11:32:23.905Z,99541.27
2018-09-21T11:34:51.794Z,99531.70
2018-09-21T11:37:19.504Z,99538.97
2018-09-21T11:39:47.190Z,99534.86
2018-09-21T11:42:18.244Z,99527.20
2018-09-21T11:44:45.938Z,99531.71
2018-09-21T11:47:13.797Z,99523.72
2018-09-21T11:49:41.422Z,99509.01
2018-09-21T11:52:09.140Z,99507.09
2018-09-21T11:54:36.930Z,99497.73
2018-09-21T11:57:04.639Z,99502.92
2018-09-21T11:59:32.364Z,99504.25
2018-09-21T12:02:00.117Z,99497.59
2018-09-21T12:04:27.826Z,99488.88
2018-09-21T12:06:55.515Z,99488.14
2018-09-21T12:09:23.214Z,99484.14
2018-09-21T12:11:50.905Z,99488.52
2018-09-21T12:14:18.579Z,99489.84
2018-09-21T12:16:46.405Z,99495.52
2018-09-21T12:19:14.044Z,99484.77
2018-09-21T12:21:41.692Z,99480.15
2018-09-21T12:24:09.424Z,99487.78
2018-09-21T12:26:37.114Z,99482.78
2018-09-21T12:29:04.785Z,99460.86
2018-09-21T12:31:32.467Z,99462.45
2018-09-21T12:34:00.205Z,99457.94
2018-09-21T12:36:27.990Z,99449.05
2018-09-21T12:38:55.676Z,99446.38
2018-09-21T12:41:23.564Z,99456.27
2018-09-21T12:43:51.312Z,99454.27
2018-09-21T12:46:27.635Z,99448.05
2018-09-21T12:48:59.777Z,99457.78
2018-09-21T12:51:27.471Z,99451.56
2018-09-21T12:53:55.503Z,99442.75
2018-09-21T12:56:23.559Z,99444.30
2018-09-21T12:58:51.600Z,99444.22
2018-09-21T13:01:19.324Z,99431.30
2018-09-21T13:03:47.256Z,99417.18
2018-09-21T13:06:14.992Z,99422.05
2018-09-21T13:08:42.785Z,99415.55
2018-09-21T13:11:10.473Z,99426.33
2018-09-21T13:13:38.175Z,99430.67
2018-09-21T13:16:05.910Z,99408.30
2018-09-21T13:18:33.617Z,99395.61
2018-09-21T13:21:01.288Z,99384.34
2018-09-21T13:23:29.216Z,99385.94
2018-09-21T13:25:56.924Z,99378.43
2018-09-21T13:28:24.608Z,99374.45
2018-09-21T13:30:52.358Z,99367.78
2018-09-21T13:33:20.094Z,99367.58
2018-09-21T13:35:47.784Z,99363.80
2018-09-21T13:38:15.448Z,99365.98
2018-09-21T13:40:43.177Z,99381.94
2018-09-21T13:43:10.883Z,99374.07
2018-09-21T13:45:38.582Z,99370.70
2018-09-21T13:48:06.316Z,99377.96
2018-09-21T13:50:33.990Z,99356.67
2018-09-21T13:53:01.727Z,99349.63
2018-09-21T13:55:29.408Z,99345.52
2018-09-21T13:57:57.097Z,99359.41
2018-09-21T14:00:24.878Z,99350.59
2018-09-21T14:02:52.568Z,99342.58
2018-09-21T14:05:20.346Z,99320.00
2018-09-21T14:07:48.007Z,99308.25
2018-09-21T14:10:15.741Z,99297.52
2018-09-21T14:12:43.429Z,99292.48
2018-09-21T14:15:11.093Z,99278.34
2018-09-21T14:17:38.805Z,99270.85
2018-09-21T14:20:06.916Z,99288.49
2018-09-21T14:22:34.665Z,99270.85
2018-09-21T14:25:02.388Z,99264.41
2018-09-21T14:27:30.124Z,99264.66
2018-09-21T14:29:57.926Z,99254.13
2018-09-21T14:32:25.627Z,99250.05
2018-09-21T14:34:53.352Z,99234.72
2018-09-21T14:37:21.028Z,99238.70
2018-09-21T14:39:48.709Z,99232.06
2018-09-21T14:42:16.406Z,99232.55
2018-09-21T14:44:44.229Z,99221.92
2018-09-21T14:47:12.258Z,99213.95
2018-09-21T14:49:39.944Z,99203.56
2018-09-21T14:52:07.671Z,99201.14
2018-09-21T14:54:36.160Z,99201.52
2018-09-21T14:57:03.839Z,99189.05
2018-09-21T14:59:31.508Z,99176.86
2018-09-21T15:01:59.253Z,99168.89
2018-09-21T15:04:26.936Z,99163.84
2018-09-21T15:06:54.583Z,99157.58
2018-09-21T15:09:22.247Z,99148.65
2018-09-21T15:11:49.945Z,99143.34
2018-09-21T15:14:17.672Z,99131.75
2018-09-21T15:16:45.335Z,99125.11
2018-09-21T15:19:13.120Z,99116.66
2018-09-21T15:21:41.094Z,99110.84
2018-09-21T15:24:08.809Z,99102.98
2018-09-21T15:26:36.591Z,99102.28
2018-09-21T15:29:04.304Z,99096.12
2018-09-21T15:31:31.965Z,99079.95
2018-09-21T15:33:59.671Z,99070.66
2018-09-21T15:36:27.340Z,99057.95
2018-09-21T15:38:55.056Z,99056.63
2018-09-21T15:41:22.756Z,99049.61
2018-09-21T15:43:50.424Z,99052.64
2018-09-21T15:46:18.144Z,99038.88
2018-09-21T15:48:45.886Z,99029.47
2018-09-21T15:51:13.559Z,99012.55
2018-09-21T15:53:41.309Z,99009.78
2018-09-21T15:56:09.063Z,98989.12
2018-09-21T15:58:36.785Z,98978.23
2018-09-21T16:01:04.461Z,98973.14
2018-09-21T16:03:32.148Z,98979.94
2018-09-21T16:05:59.924Z,98977.98
2018-09-21T16:08:27.571Z,98981.70
2018-09-21T16:10:55.231Z,98981.45
2018-09-21T16:13:22.915Z,98979.98
2018-09-21T16:15:50.587Z,98963.03
2018-09-21T16:18:18.316Z,98953.47
2018-09-21T16:20:46.005Z,98939.02
2018-09-21T16:23:13.675Z,98945.03
2018-09-21T16:25:41.368Z,98946.67
2018-09-21T16:28:09.020Z,98946.52
2018-09-21T16:30:36.704Z,98926.52
2018-09-21T16:33:04.401Z,98913.16
2018-09-21T16:35:32.104Z,98909.00
2018-09-21T16:37:59.793Z,98909.09
2018-09-21T16:40:27.496Z,98894.56
2018-09-21T16:42:55.265Z,98890.30
2018-09-21T16:45:22.932Z,98890.72
2018-09-21T16:47:50.603Z,98891.45
2018-09-21T16:50:18.300Z,98883.20
2018-09-21T16:52:45.988Z,98881.59
2018-09-21T16:55:13.679Z,98868.38
2018-09-21T16:57:41.435Z,98851.98
2018-09-21T17:00:09.288Z,98849.88
2018-09-21T17:02:37.162Z,98846.55
2018-09-21T17:05:05.115Z,98841.06
2018-09-21T17:07:32.768Z,98841.63
2018-09-21T17:10:00.441Z,98831.75
2018-09-21T17:12:28.321Z,98828.52
2018-09-21T17:14:56.025Z,98818.80
2018-09-21T17:17:23.685Z,98815.56
2018-09-21T17:19:51.370Z,98798.17
2018-09-21T17:22:19.041Z,98795.22
2018-09-21T17:24:46.697Z,98793.61
2018-09-21T17:27:14.433Z,98789.84
2018-09-21T17:29:42.129Z,98794.04
2018-09-21T17:32:09.824Z,98795.57
2018-09-21T17:34:37.556Z,98786.45
2018-09-21T17:37:05.307Z,98801.17
2018-09-21T17:39:32.942Z,98790.58
2018-09-21T17:42:00.625Z,98772.13
2018-09-21T17:44:28.316Z,98750.69
2018-09-21T17:46:56.385Z,98757.41
2018-09-21T17:49:24.065Z,98755.79
2018-09-21T17:51:51.774Z,98749.94
2018-09-21T17:54:19.436Z,98738.79
2018-09-21T17:56:47.115Z,98738.73
2018-09-21T17:59:14.819Z,98732.61
2018-09-21T18:01:42.516Z,98731.11
2018-09-21T18:04:10.193Z,98729.48
2018-09-21T18:06:37.893Z,98720.35
2018-09-21T18:09:07.575Z,98721.06
2018-09-21T18:11:35.272Z,98705.37
2018-09-21T18:14:02.999Z,98710.46
2018-09-21T18:16:30.856Z,98698.30
2018-09-21T18:18:58.521Z,98696.84
2018-09-21T18:21:26.188Z,98679.34
2018-09-21T18:23:53.900Z,98670.72
2018-09-21T18:26:21.615Z,98676.59
2018-09-21T18:28:49.277Z,98658.13
2018-09-21T18:31:17.009Z,98654.97
2018-09-21T18:33:44.720Z,98659.64
2018-09-21T18:36:12.385Z,98648.19
2018-09-21T18:38:40.189Z,98643.63
2018-09-21T18:41:07.860Z,98636.08
2018-09-21T18:43:35.568Z,98626.53
2018-09-21T18:46:03.263Z,98635.26
2018-09-21T18:48:30.976Z,98626.95
2018-09-21T18:50:58.680Z,98616.94
2018-09-21T18:53:26.345Z,98622.86
2018-09-21T18:55:54.040Z,98617.56
2018-09-21T18:58:21.777Z,98603.73
2018-09-21T19:00:49.500Z,98596.88
2018-09-21T19:03:17.177Z,98588.55
2018-09-21T19:05:44.859Z,98568.53
2018-09-21T19:08:12.552Z,98565.88
2018-09-21T19:10:40.248Z,98565.24
2018-09-21T19:13:07.904Z,98564.93
2018-09-21T19:15:35.582Z,98554.92
2018-09-21T19:18:03.284Z,98541.25
2018-09-21T19:20:30.992Z,98521.23
2018-09-21T19:22:58.700Z,98515.75
2018-09-21T19:25:26.377Z,98507.25
2018-09-21T19:27:54.049Z,98505.91
2018-09-21T19:30:21.740Z,98492.08
2018-09-21T19:32:49.434Z,98489.72
2018-09-21T19:35:17.113Z,98482.73
2018-09-21T19:37:44.834Z,98477.19
2018-09-21T19:40:12.507Z,98498.55
2018-09-21T19:42:40.176Z,98507.22
2018-09-21T19:45:08.083Z,98518.39
2018-09-21T19:47:35.624Z,98524.89
2018-09-21T19:50:03.813Z,98524.53
2018-09-21T19:52:31.473Z,98529.03
2018-09-21T19:54:59.219Z,98523.87
2018-09-21T19:57:26.918Z,98506.16
2018-09-21T19:59:54.572Z,98500.83
2018-09-21T20:02:22.312Z,98495.14
2018-09-21T20:04:50.162Z,98501.50
2018-09-21T20:07:17.843Z,98490.96
2018-09-21T20:09:45.501Z,98478.11
2018-09-21T20:12:13.617Z,98466.41
2018-09-21T20:14:41.337Z,98450.08
2018-09-21T20:17:09.027Z,98436.39
2018-09-21T20:19:36.697Z,98432.70
2018-09-21T20:22:04.978Z,98428.00
2018-09-21T20:24:32.627Z,98434.67
2018-09-21T20:27:00.324Z,98425.66
2018-09-21T20:29:28.028Z,98432.98
2018-09-21T20:32:01.409Z,98449.31
2018-09-21T20:34:29.095Z,98439.28
2018-09-21T20:36:56.772Z,98432.30
2018-09-21T20:39:24.444Z,98419.80
2018-09-21T20:41:52.138Z,98417.44
2018-09-21T20:44:19.813Z,98412.28
2018-09-21T20:46:47.524Z,98414.77
2018-09-21T20:49:15.209Z,98412.25
2018-09-21T20:51:42.869Z,98414.25
2018-09-21T20:54:10.595Z,98419.73
2018-09-21T20:56:38.264Z,98401.55
2018-09-21T20:59:05.929Z,98389.19
2018-09-21T21:01:33.607Z,98374.84
2018-09-21T21:04:01.264Z,98382.52
2018-09-21T21:06:28.936Z,98375.16
2018-09-21T21:08:56.612Z,98372.66
2018-09-21T21:11:24.268Z,98381.30
2018-09-21T21:13:51.951Z,98372.98
2018-09-21T21:16:19.632Z,98375.16
2018-09-21T21:18:47.345Z,98386.81
2018-09-21T21:21:15.011Z,98389.09
2018-09-21T21:23:42.696Z,98381.76
2018-09-21T21:26:10.416Z,98378.39
2018-09-21T21:28:38.124Z,98381.05
2018-09-21T21:31:05.801Z,98375.55
2018-09-21T21:33:33.475Z,98367.72
2018-09-21T21:36:01.162Z,98374.39
2018-09-21T21:38:28.826Z,98373.86
2018-09-21T21:40:56.531Z,98374.53
2018-09-21T21:43:24.255Z,98362.03
2018-09-21T21:45:52.091Z,98355.37
2018-09-21T21:48:19.816Z,98366.88
2018-09-21T21:50:47.480Z,98359.72
2018-09-21T21:53:15.148Z,98350.00
2018-09-21T21:55:42.872Z,98362.53
2018-09-21T21:58:10.527Z,98363.72
2018-09-21T22:00:43.756Z,98351.02
2018-09-21T22:03:11.469Z,98362.70
2018-09-21T22:05:39.132Z,98368.03
2018-09-21T22:08:06.836Z,98362.70
2018-09-21T22:10:34.905Z,98370.70
2018-09-21T22:13:08.061Z,98343.59
2018-09-21T22:15:35.731Z,98362.84
2018-09-21T22:18:03.400Z,98367.34
2018-09-21T22:20:31.098Z,98366.00
2018-09-21T22:22:58.776Z,98362.98
2018-09-21T22:25:26.514Z,98356.50
2018-09-21T22:27:54.212Z,98358.31
2018-09-21T22:30:21.864Z,98350.63
2018-09-21T22:32:49.614Z,98343.97
2018-09-21T22:35:17.303Z,98347.13
2018-09-21T22:37:44.958Z,98345.30
2018-09-21T22:40:12.651Z,98336.32
2018-09-21T22:42:40.316Z,98333.30
2018-09-21T22:45:08.044Z,98329.97
2018-09-21T22:47:35.772Z,98323.41
2018-09-21T22:50:03.494Z,98327.91
2018-09-21T22:52:31.187Z,98320.36
2018-09-21T22:54:58.884Z,98331.16
2018-09-21T22:57:26.624Z,98323.97
2018-09-21T22:59:54.284Z,98323.80
2018-09-21T23:02:21.975Z,98323.76
2018-09-21T23:04:49.708Z,98307.27
2018-09-21T23:07:17.368Z,98293.59
2018-09-21T23:09:45.046Z,98276.42
2018-09-21T23:12:12.783Z,98256.44
2018-09-21T23:14:40.468Z,98252.27
2018-09-21T23:17:08.135Z,98241.42
2018-09-21T23:19:35.876Z,98247.59
2018-09-21T23:22:03.656Z,98250.58
2018-09-21T23:24:31.327Z,98254.36
2018-09-21T23:26:59.023Z,98254.54
2018-09-21T23:29:26.696Z,98257.84
2018-09-21T23:31:54.432Z,98275.95
2018-09-21T23:34:22.209Z,98258.81
2018-09-21T23:36:49.904Z,98254.29
2018-09-21T23:39:17.643Z,98239.78
2018-09-21T23:41:45.328Z,98236.27
2018-09-21T23:44:13.000Z,98213.77
2018-09-21T23:46:40.668Z,98219.89
2018-09-21T23:49:08.399Z,98219.02
2018-09-21T23:51:36.061Z,98214.49
2018-09-21T23:54:03.818Z,98219.11
2018-09-21T23:56:31.616Z,98202.56
2018-09-21T23:58:59.284Z,98208.69
